sensor_id;sensor_type;location;lat;lon;timestamp;temperature;humidity
64869;DHT22;51349;52.424;10.840;2023-04-16T00:02:11;9.10;99.90
64869;DHT22;51349;52.424;10.840;2023-04-16T00:07:12;9.10;99.90
64869;DHT22;51349;52.424;10.840;2023-04-16T00:12:13;9.10;99.90
64869;DHT22;51349;52.424;10.840;2023-04-16T00:17:14;9.00;99.90
64869;DHT22;51349;52.424;10.840;2023-04-16T00:22:15;9.00;99.90
64869;DHT22;51349;52.424;10.840;2023-04-16T00:27:15;9.00;99.90
64869;DHT22;51349;52.424;10.840;2023-04-16T00:32:16;8.90;99.90
64869;DHT22;51349;52.424;10.840;2023-04-16T00:37:17;8.90;99.90
64869;DHT22;51349;52.424;10.840;2023-04-16T00:42:17;9.00;99.90
64869;DHT22;51349;52.424;10.840;2023-04-16T00:47:19;8.90;99.90
64869;DHT22;51349;52.424;10.840;2023-04-16T00:52:20;8.80;99.90
64869;DHT22;51349;52.424;10.840;2023-04-16T00:57:21;8.80;99.90
64869;DHT22;51349;52.424;10.840;2023-04-16T01:02:23;8.80;99.90
64869;DHT22;51349;52.424;10.840;2023-04-16T01:07:24;8.80;99.90
64869;DHT22;51349;52.424;10.840;2023-04-16T01:12:25;8.60;99.90
64869;DHT22;51349;52.424;10.840;2023-04-16T01:17:25;8.60;99.90
64869;DHT22;51349;52.424;10.840;2023-04-16T01:22:30;8.60;99.90
64869;DHT22;51349;52.424;10.840;2023-04-16T01:27:31;8.40;99.90
64869;DHT22;51349;52.424;10.840;2023-04-16T01:32:32;8.40;99.90
64869;DHT22;51349;52.424;10.840;2023-04-16T01:37:32;8.40;99.90
64869;DHT22;51349;52.424;10.840;2023-04-16T01:42:33;8.30;99.90
64869;DHT22;51349;52.424;10.840;2023-04-16T01:47:34;8.30;99.90
64869;DHT22;51349;52.424;10.840;2023-04-16T01:52:34;8.20;99.90
64869;DHT22;51349;52.424;10.840;2023-04-16T01:57:36;8.20;99.90
64869;DHT22;51349;52.424;10.840;2023-04-16T02:02:40;8.20;99.90
64869;DHT22;51349;52.424;10.840;2023-04-16T02:07:40;8.10;99.90
64869;DHT22;51349;52.424;10.840;2023-04-16T02:12:41;8.10;99.90
64869;DHT22;51349;52.424;10.840;2023-04-16T02:17:42;8.10;99.90
64869;DHT22;51349;52.424;10.840;2023-04-16T02:22:42;8.10;99.90
64869;DHT22;51349;52.424;10.840;2023-04-16T02:27:43;8.10;99.90
64869;DHT22;51349;52.424;10.840;2023-04-16T02:32:43;8.00;99.90
64869;DHT22;51349;52.424;10.840;2023-04-16T02:37:44;8.00;99.90
64869;DHT22;51349;52.424;10.840;2023-04-16T02:42:45;8.00;99.90
64869;DHT22;51349;52.424;10.840;2023-04-16T02:47:47;8.00;99.90
64869;DHT22;51349;52.424;10.840;2023-04-16T02:52:48;7.90;99.90
64869;DHT22;51349;52.424;10.840;2023-04-16T02:57:50;7.90;99.90
64869;DHT22;51349;52.424;10.840;2023-04-16T03:02:55;7.80;99.90
64869;DHT22;51349;52.424;10.840;2023-04-16T03:07:56;7.80;99.90
64869;DHT22;51349;52.424;10.840;2023-04-16T03:12:57;7.80;99.90
64869;DHT22;51349;52.424;10.840;2023-04-16T03:17:58;7.70;99.90
64869;DHT22;51349;52.424;10.840;2023-04-16T03:22:59;7.70;99.90
64869;DHT22;51349;52.424;10.840;2023-04-16T03:27:59;7.70;99.90
64869;DHT22;51349;52.424;10.840;2023-04-16T03:33:00;7.70;99.90
64869;DHT22;51349;52.424;10.840;2023-04-16T03:38:01;7.70;99.90
64869;DHT22;51349;52.424;10.840;2023-04-16T03:43:01;7.70;99.90
64869;DHT22;51349;52.424;10.840;2023-04-16T03:48:02;7.60;99.90
64869;DHT22;51349;52.424;10.840;2023-04-16T03:53:03;7.60;99.90
64869;DHT22;51349;52.424;10.840;2023-04-16T03:58:03;7.60;99.90
64869;DHT22;51349;52.424;10.840;2023-04-16T04:03:04;7.50;99.90
64869;DHT22;51349;52.424;10.840;2023-04-16T04:08:05;7.60;99.90
64869;DHT22;51349;52.424;10.840;2023-04-16T04:13:06;7.60;99.90
64869;DHT22;51349;52.424;10.840;2023-04-16T04:18:06;7.50;99.90
64869;DHT22;51349;52.424;10.840;2023-04-16T04:23:07;7.50;99.90
64869;DHT22;51349;52.424;10.840;2023-04-16T04:28:08;7.50;99.90
64869;DHT22;51349;52.424;10.840;2023-04-16T04:33:08;7.50;99.90
64869;DHT22;51349;52.424;10.840;2023-04-16T04:38:09;7.50;99.90
64869;DHT22;51349;52.424;10.840;2023-04-16T04:43:13;7.50;99.90
64869;DHT22;51349;52.424;10.840;2023-04-16T04:48:14;7.50;99.90
64869;DHT22;51349;52.424;10.840;2023-04-16T04:53:18;7.50;99.90
64869;DHT22;51349;52.424;10.840;2023-04-16T04:58:22;7.40;99.90
64869;DHT22;51349;52.424;10.840;2023-04-16T05:03:22;7.50;99.90
64869;DHT22;51349;52.424;10.840;2023-04-16T05:08:23;7.40;99.90
64869;DHT22;51349;52.424;10.840;2023-04-16T05:13:24;7.50;99.90
64869;DHT22;51349;52.424;10.840;2023-04-16T05:18:24;7.50;99.90
64869;DHT22;51349;52.424;10.840;2023-04-16T05:23:25;7.50;99.90
64869;DHT22;51349;52.424;10.840;2023-04-16T05:28:25;7.50;99.90
64869;DHT22;51349;52.424;10.840;2023-04-16T05:33:26;7.50;99.90
64869;DHT22;51349;52.424;10.840;2023-04-16T05:38:27;7.50;99.90
64869;DHT22;51349;52.424;10.840;2023-04-16T05:43:27;7.40;99.90
64869;DHT22;51349;52.424;10.840;2023-04-16T05:48:28;7.50;99.90
64869;DHT22;51349;52.424;10.840;2023-04-16T05:53:29;7.50;99.90
64869;DHT22;51349;52.424;10.840;2023-04-16T05:58:29;7.50;99.90
64869;DHT22;51349;52.424;10.840;2023-04-16T06:03:30;7.50;99.90
64869;DHT22;51349;52.424;10.840;2023-04-16T06:08:30;7.50;99.90
64869;DHT22;51349;52.424;10.840;2023-04-16T06:13:31;7.60;99.90
64869;DHT22;51349;52.424;10.840;2023-04-16T06:18:32;7.60;99.90
64869;DHT22;51349;52.424;10.840;2023-04-16T06:23:32;7.70;99.90
64869;DHT22;51349;52.424;10.840;2023-04-16T06:28:33;7.70;99.90
64869;DHT22;51349;52.424;10.840;2023-04-16T06:33:34;7.80;99.90
64869;DHT22;51349;52.424;10.840;2023-04-16T06:38:36;7.80;99.90
64869;DHT22;51349;52.424;10.840;2023-04-16T06:43:36;7.80;99.90
64869;DHT22;51349;52.424;10.840;2023-04-16T06:48:37;7.80;99.90
64869;DHT22;51349;52.424;10.840;2023-04-16T06:53:38;7.80;99.90
64869;DHT22;51349;52.424;10.840;2023-04-16T06:58:38;7.80;99.90
64869;DHT22;51349;52.424;10.840;2023-04-16T07:03:39;7.80;99.90
64869;DHT22;51349;52.424;10.840;2023-04-16T07:08:40;7.90;99.90
64869;DHT22;51349;52.424;10.840;2023-04-16T07:13:40;7.80;99.90
64869;DHT22;51349;52.424;10.840;2023-04-16T07:18:41;7.80;99.90
64869;DHT22;51349;52.424;10.840;2023-04-16T07:23:42;7.80;99.90
64869;DHT22;51349;52.424;10.840;2023-04-16T07:28:42;7.80;99.90
64869;DHT22;51349;52.424;10.840;2023-04-16T07:33:43;7.80;99.90
64869;DHT22;51349;52.424;10.840;2023-04-16T07:38:44;7.80;99.90
64869;DHT22;51349;52.424;10.840;2023-04-16T07:43:44;7.80;99.90
64869;DHT22;51349;52.424;10.840;2023-04-16T07:48:45;7.80;99.90
64869;DHT22;51349;52.424;10.840;2023-04-16T07:53:46;7.80;99.90
64869;DHT22;51349;52.424;10.840;2023-04-16T07:58:46;7.80;99.90
64869;DHT22;51349;52.424;10.840;2023-04-16T08:03:47;7.80;99.90
64869;DHT22;51349;52.424;10.840;2023-04-16T08:08:48;7.90;99.90
64869;DHT22;51349;52.424;10.840;2023-04-16T08:13:49;7.80;99.90
64869;DHT22;51349;52.424;10.840;2023-04-16T08:18:49;7.90;99.90
64869;DHT22;51349;52.424;10.840;2023-04-16T08:23:50;7.90;99.90
64869;DHT22;51349;52.424;10.840;2023-04-16T08:28:50;8.10;99.90
64869;DHT22;51349;52.424;10.840;2023-04-16T08:33:51;8.10;99.90
64869;DHT22;51349;52.424;10.840;2023-04-16T08:38:52;8.20;99.90
64869;DHT22;51349;52.424;10.840;2023-04-16T08:43:54;8.20;99.90
64869;DHT22;51349;52.424;10.840;2023-04-16T08:48:57;8.20;99.90
64869;DHT22;51349;52.424;10.840;2023-04-16T08:54:08;8.40;99.90
64869;DHT22;51349;52.424;10.840;2023-04-16T08:59:11;8.40;99.90
64869;DHT22;51349;52.424;10.840;2023-04-16T09:04:13;8.30;99.90
64869;DHT22;51349;52.424;10.840;2023-04-16T09:09:15;8.40;99.90
64869;DHT22;51349;52.424;10.840;2023-04-16T09:14:17;8.50;99.90
64869;DHT22;51349;52.424;10.840;2023-04-16T09:19:17;8.50;99.90
64869;DHT22;51349;52.424;10.840;2023-04-16T09:24:18;8.60;99.90
64869;DHT22;51349;52.424;10.840;2023-04-16T09:29:35;8.60;99.90
64869;DHT22;51349;52.424;10.840;2023-04-16T09:35:00;8.90;99.90
64869;DHT22;51349;52.424;10.840;2023-04-16T09:40:02;9.00;99.90
64869;DHT22;51349;52.424;10.840;2023-04-16T09:45:03;9.00;99.90
64869;DHT22;51349;52.424;10.840;2023-04-16T09:50:05;8.90;99.90
64869;DHT22;51349;52.424;10.840;2023-04-16T09:55:06;9.00;99.90
64869;DHT22;51349;52.424;10.840;2023-04-16T10:00:08;9.10;99.90
64869;DHT22;51349;52.424;10.840;2023-04-16T10:05:13;9.00;99.90
64869;DHT22;51349;52.424;10.840;2023-04-16T10:10:17;9.10;99.90
64869;DHT22;51349;52.424;10.840;2023-04-16T10:15:17;9.40;99.90
64869;DHT22;51349;52.424;10.840;2023-04-16T10:20:18;9.70;99.90
64869;DHT22;51349;52.424;10.840;2023-04-16T10:25:19;9.80;99.90
64869;DHT22;51349;52.424;10.840;2023-04-16T10:30:20;9.70;99.90
64869;DHT22;51349;52.424;10.840;2023-04-16T10:35:24;9.90;99.90
64869;DHT22;51349;52.424;10.840;2023-04-16T10:40:26;10.00;99.90
64869;DHT22;51349;52.424;10.840;2023-04-16T10:45:38;9.90;99.90
64869;DHT22;51349;52.424;10.840;2023-04-16T10:50:38;10.00;99.90
64869;DHT22;51349;52.424;10.840;2023-04-16T10:55:40;10.00;99.90
64869;DHT22;51349;52.424;10.840;2023-04-16T11:00:50;10.10;99.90
64869;DHT22;51349;52.424;10.840;2023-04-16T11:05:51;10.00;99.90
64869;DHT22;51349;52.424;10.840;2023-04-16T11:11:04;10.20;99.90
64869;DHT22;51349;52.424;10.840;2023-04-16T11:16:04;10.30;99.90
64869;DHT22;51349;52.424;10.840;2023-04-16T11:21:09;10.30;99.90
64869;DHT22;51349;52.424;10.840;2023-04-16T11:26:22;10.20;99.90
64869;DHT22;51349;52.424;10.840;2023-04-16T11:31:23;10.40;99.90
64869;DHT22;51349;52.424;10.840;2023-04-16T11:36:24;10.50;99.90
64869;DHT22;51349;52.424;10.840;2023-04-16T11:41:25;10.70;99.90
64869;DHT22;51349;52.424;10.840;2023-04-16T11:46:38;11.00;99.90
64869;DHT22;51349;52.424;10.840;2023-04-16T11:51:44;10.90;99.90
64869;DHT22;51349;52.424;10.840;2023-04-16T11:56:46;11.10;99.90
64869;DHT22;51349;52.424;10.840;2023-04-16T12:01:49;11.20;99.90
64869;DHT22;51349;52.424;10.840;2023-04-16T12:07:12;11.30;99.90
64869;DHT22;51349;52.424;10.840;2023-04-16T12:17:26;11.90;99.90
64869;DHT22;51349;52.424;10.840;2023-04-16T12:22:32;12.40;99.90
64869;DHT22;51349;52.424;10.840;2023-04-16T12:27:45;12.20;99.90
64869;DHT22;51349;52.424;10.840;2023-04-16T12:32:48;12.20;99.90
64869;DHT22;51349;52.424;10.840;2023-04-16T12:37:49;12.30;99.90
64869;DHT22;51349;52.424;10.840;2023-04-16T12:42:49;12.40;99.90
64869;DHT22;51349;52.424;10.840;2023-04-16T12:47:50;12.20;99.90
64869;DHT22;51349;52.424;10.840;2023-04-16T12:52:51;12.20;99.90
64869;DHT22;51349;52.424;10.840;2023-04-16T12:57:51;11.90;99.90
64869;DHT22;51349;52.424;10.840;2023-04-16T13:02:52;12.80;99.90
64869;DHT22;51349;52.424;10.840;2023-04-16T13:07:53;13.50;99.90
64869;DHT22;51349;52.424;10.840;2023-04-16T13:12:53;13.50;99.90
64869;DHT22;51349;52.424;10.840;2023-04-16T13:17:54;13.20;99.90
64869;DHT22;51349;52.424;10.840;2023-04-16T13:22:55;13.30;99.90
64869;DHT22;51349;52.424;10.840;2023-04-16T13:27:56;13.10;99.90
64869;DHT22;51349;52.424;10.840;2023-04-16T13:32:57;13.10;99.90
64869;DHT22;51349;52.424;10.840;2023-04-16T13:37:57;13.00;99.90
64869;DHT22;51349;52.424;10.840;2023-04-16T13:42:58;13.00;99.90
64869;DHT22;51349;52.424;10.840;2023-04-16T13:47:59;12.80;99.90
64869;DHT22;51349;52.424;10.840;2023-04-16T13:53:00;12.50;99.90
64869;DHT22;51349;52.424;10.840;2023-04-16T13:58:02;12.20;99.90
64869;DHT22;51349;52.424;10.840;2023-04-16T14:03:02;12.10;99.90
64869;DHT22;51349;52.424;10.840;2023-04-16T14:08:05;12.00;99.90
64869;DHT22;51349;52.424;10.840;2023-04-16T14:13:06;11.90;99.90
64869;DHT22;51349;52.424;10.840;2023-04-16T14:18:06;11.90;99.90
64869;DHT22;51349;52.424;10.840;2023-04-16T14:23:07;11.80;99.90
64869;DHT22;51349;52.424;10.840;2023-04-16T14:28:07;11.70;99.90
64869;DHT22;51349;52.424;10.840;2023-04-16T14:33:08;11.70;99.90
64869;DHT22;51349;52.424;10.840;2023-04-16T14:38:10;11.70;99.90
64869;DHT22;51349;52.424;10.840;2023-04-16T14:43:10;11.90;99.90
64869;DHT22;51349;52.424;10.840;2023-04-16T14:48:11;12.10;99.90
64869;DHT22;51349;52.424;10.840;2023-04-16T14:53:12;12.30;99.90
64869;DHT22;51349;52.424;10.840;2023-04-16T14:58:12;12.40;99.90
64869;DHT22;51349;52.424;10.840;2023-04-16T15:03:13;12.50;99.90
64869;DHT22;51349;52.424;10.840;2023-04-16T15:08:14;12.70;99.90
64869;DHT22;51349;52.424;10.840;2023-04-16T15:13:16;12.70;99.90
64869;DHT22;51349;52.424;10.840;2023-04-16T15:18:16;12.60;99.90
64869;DHT22;51349;52.424;10.840;2023-04-16T15:23:17;12.60;99.90
64869;DHT22;51349;52.424;10.840;2023-04-16T15:28:18;12.60;99.90
64869;DHT22;51349;52.424;10.840;2023-04-16T15:33:21;12.70;99.90
64869;DHT22;51349;52.424;10.840;2023-04-16T15:38:22;12.60;99.90
64869;DHT22;51349;52.424;10.840;2023-04-16T15:43:26;12.50;99.90
64869;DHT22;51349;52.424;10.840;2023-04-16T15:48:27;12.30;99.90
64869;DHT22;51349;52.424;10.840;2023-04-16T15:53:28;12.10;99.90
64869;DHT22;51349;52.424;10.840;2023-04-16T15:58:29;12.00;99.90
64869;DHT22;51349;52.424;10.840;2023-04-16T16:03:29;11.90;99.90
64869;DHT22;51349;52.424;10.840;2023-04-16T16:08:32;11.80;99.90
64869;DHT22;51349;52.424;10.840;2023-04-16T16:13:37;11.70;99.90
64869;DHT22;51349;52.424;10.840;2023-04-16T16:18:38;11.60;99.90
64869;DHT22;51349;52.424;10.840;2023-04-16T16:23:38;11.40;99.90
64869;DHT22;51349;52.424;10.840;2023-04-16T16:28:39;11.30;99.90
64869;DHT22;51349;52.424;10.840;2023-04-16T16:33:43;11.20;99.90
64869;DHT22;51349;52.424;10.840;2023-04-16T16:38:43;11.10;99.90
64869;DHT22;51349;52.424;10.840;2023-04-16T16:43:46;10.90;99.90
64869;DHT22;51349;52.424;10.840;2023-04-16T16:48:47;10.70;99.90
64869;DHT22;51349;52.424;10.840;2023-04-16T16:53:49;10.50;99.90
64869;DHT22;51349;52.424;10.840;2023-04-16T16:58:50;10.50;99.90
64869;DHT22;51349;52.424;10.840;2023-04-16T17:03:50;10.40;99.90
64869;DHT22;51349;52.424;10.840;2023-04-16T17:08:51;10.40;99.90
64869;DHT22;51349;52.424;10.840;2023-04-16T17:13:52;10.40;99.90
64869;DHT22;51349;52.424;10.840;2023-04-16T17:18:53;10.40;99.90
64869;DHT22;51349;52.424;10.840;2023-04-16T17:23:53;10.30;99.90
64869;DHT22;51349;52.424;10.840;2023-04-16T17:28:54;10.30;99.90
64869;DHT22;51349;52.424;10.840;2023-04-16T17:33:56;10.30;99.90
64869;DHT22;51349;52.424;10.840;2023-04-16T17:38:58;10.20;99.90
64869;DHT22;51349;52.424;10.840;2023-04-16T17:43:59;10.20;99.90
64869;DHT22;51349;52.424;10.840;2023-04-16T17:49:00;10.20;99.90
64869;DHT22;51349;52.424;10.840;2023-04-16T17:54:00;10.20;99.90
64869;DHT22;51349;52.424;10.840;2023-04-16T17:59:04;10.20;99.90
64869;DHT22;51349;52.424;10.840;2023-04-16T18:04:06;10.10;99.90
64869;DHT22;51349;52.424;10.840;2023-04-16T18:09:06;10.10;99.90
64869;DHT22;51349;52.424;10.840;2023-04-16T18:14:07;10.10;99.90
64869;DHT22;51349;52.424;10.840;2023-04-16T18:19:10;10.00;99.90
64869;DHT22;51349;52.424;10.840;2023-04-16T18:24:11;10.00;99.90
64869;DHT22;51349;52.424;10.840;2023-04-16T18:29:13;10.00;99.90
64869;DHT22;51349;52.424;10.840;2023-04-16T18:34:13;9.90;99.90
64869;DHT22;51349;52.424;10.840;2023-04-16T18:39:14;9.90;99.90
64869;DHT22;51349;52.424;10.840;2023-04-16T18:44:15;9.90;99.90
64869;DHT22;51349;52.424;10.840;2023-04-16T18:49:16;9.80;99.90
64869;DHT22;51349;52.424;10.840;2023-04-16T18:54:17;9.80;99.90
64869;DHT22;51349;52.424;10.840;2023-04-16T18:59:19;9.80;99.90
64869;DHT22;51349;52.424;10.840;2023-04-16T19:04:20;9.70;99.90
64869;DHT22;51349;52.424;10.840;2023-04-16T19:09:21;9.70;99.90
64869;DHT22;51349;52.424;10.840;2023-04-16T19:14:21;9.70;99.90
64869;DHT22;51349;52.424;10.840;2023-04-16T19:19:22;9.60;99.90
64869;DHT22;51349;52.424;10.840;2023-04-16T19:24:22;9.60;99.90
64869;DHT22;51349;52.424;10.840;2023-04-16T19:29:24;9.60;99.90
64869;DHT22;51349;52.424;10.840;2023-04-16T19:34:26;9.60;99.90
64869;DHT22;51349;52.424;10.840;2023-04-16T19:39:27;9.60;99.90
64869;DHT22;51349;52.424;10.840;2023-04-16T19:44:28;9.50;99.90
64869;DHT22;51349;52.424;10.840;2023-04-16T19:49:28;9.50;99.90
64869;DHT22;51349;52.424;10.840;2023-04-16T19:54:29;9.50;99.90
64869;DHT22;51349;52.424;10.840;2023-04-16T19:59:32;9.40;99.90
64869;DHT22;51349;52.424;10.840;2023-04-16T20:04:34;9.40;99.90
64869;DHT22;51349;52.424;10.840;2023-04-16T20:09:35;9.40;99.90
64869;DHT22;51349;52.424;10.840;2023-04-16T20:14:35;9.40;99.90
64869;DHT22;51349;52.424;10.840;2023-04-16T20:19:36;9.40;99.90
64869;DHT22;51349;52.424;10.840;2023-04-16T20:24:40;9.40;99.90
64869;DHT22;51349;52.424;10.840;2023-04-16T20:29:46;9.30;99.90
64869;DHT22;51349;52.424;10.840;2023-04-16T20:34:46;9.30;99.90
64869;DHT22;51349;52.424;10.840;2023-04-16T20:39:48;9.30;99.90
64869;DHT22;51349;52.424;10.840;2023-04-16T20:44:49;9.30;99.90
64869;DHT22;51349;52.424;10.840;2023-04-16T20:49:56;9.20;99.90
64869;DHT22;51349;52.424;10.840;2023-04-16T20:54:57;9.20;99.90
64869;DHT22;51349;52.424;10.840;2023-04-16T20:59:58;9.20;99.90
64869;DHT22;51349;52.424;10.840;2023-04-16T21:04:58;9.20;99.90
64869;DHT22;51349;52.424;10.840;2023-04-16T21:09:59;9.20;99.90
64869;DHT22;51349;52.424;10.840;2023-04-16T21:15:00;9.20;99.90
64869;DHT22;51349;52.424;10.840;2023-04-16T21:20:01;9.20;99.90
64869;DHT22;51349;52.424;10.840;2023-04-16T21:25:03;9.20;99.90
64869;DHT22;51349;52.424;10.840;2023-04-16T21:30:04;9.10;99.90
64869;DHT22;51349;52.424;10.840;2023-04-16T21:35:06;9.10;99.90
64869;DHT22;51349;52.424;10.840;2023-04-16T21:40:07;9.10;99.90
64869;DHT22;51349;52.424;10.840;2023-04-16T21:45:08;9.10;99.90
64869;DHT22;51349;52.424;10.840;2023-04-16T21:50:10;9.10;99.90
64869;DHT22;51349;52.424;10.840;2023-04-16T21:55:11;9.00;99.90
64869;DHT22;51349;52.424;10.840;2023-04-16T22:00:13;9.00;99.90
64869;DHT22;51349;52.424;10.840;2023-04-16T22:05:14;9.00;99.90
64869;DHT22;51349;52.424;10.840;2023-04-16T22:10:15;8.90;99.90
64869;DHT22;51349;52.424;10.840;2023-04-16T22:15:15;8.80;99.90
64869;DHT22;51349;52.424;10.840;2023-04-16T22:20:16;8.80;99.90
64869;DHT22;51349;52.424;10.840;2023-04-16T22:25:17;8.80;99.90
64869;DHT22;51349;52.424;10.840;2023-04-16T22:30:17;8.70;99.90
64869;DHT22;51349;52.424;10.840;2023-04-16T22:35:18;8.60;99.90
64869;DHT22;51349;52.424;10.840;2023-04-16T22:40:19;8.60;99.90
64869;DHT22;51349;52.424;10.840;2023-04-16T22:45:19;8.50;99.90
64869;DHT22;51349;52.424;10.840;2023-04-16T22:50:20;8.50;99.90
64869;DHT22;51349;52.424;10.840;2023-04-16T22:55:22;8.40;99.90
64869;DHT22;51349;52.424;10.840;2023-04-16T23:00:23;8.30;99.90
64869;DHT22;51349;52.424;10.840;2023-04-16T23:05:24;8.30;99.90
64869;DHT22;51349;52.424;10.840;2023-04-16T23:10:25;8.20;99.90
64869;DHT22;51349;52.424;10.840;2023-04-16T23:15:26;8.20;99.90
64869;DHT22;51349;52.424;10.840;2023-04-16T23:20:27;8.20;99.90
64869;DHT22;51349;52.424;10.840;2023-04-16T23:25:28;8.00;99.90
64869;DHT22;51349;52.424;10.840;2023-04-16T23:30:29;8.00;99.90
64869;DHT22;51349;52.424;10.840;2023-04-16T23:35:29;7.90;99.90
64869;DHT22;51349;52.424;10.840;2023-04-16T23:40:30;7.90;99.90
64869;DHT22;51349;52.424;10.840;2023-04-16T23:45:31;7.80;99.90
64869;DHT22;51349;52.424;10.840;2023-04-16T23:50:31;7.70;99.90
64869;DHT22;51349;52.424;10.840;2023-04-16T23:55:32;7.60;99.90
